Time;durP1;ratioP1;P1;durP2;ratioP2;P2;SDS_P1;SDS_P2;PMS_P1;PMS_P2;Temp;Humidity;BMP_temperature;BMP_pressure;BME280_temperature;BME280_humidity;BME280_pressure;Samples;Min_cycle;Max_cycle;Signal;HPM_P1;HPM_P2
2021/12/01 00:00:33;;;;;;;;;3.50;2.00;;;;;20.40;38.89;100493.31;5099431;27;45363;-57
2021/12/01 00:02:59;;;;;;;;;5.00;2.75;;;;;20.44;39.01;100499.28;5099703;27;45418;-57
2021/12/01 00:05:28;;;;;;;;;6.25;3.25;;;;;20.46;39.18;100486.84;5099736;27;45304;-60
2021/12/01 00:07:54;;;;;;;;;2.75;2.75;;;;;20.49;39.23;100494.56;5080957;27;45485;-57
2021/12/01 00:10:22;;;;;;;;;1.25;1.25;;;;;20.53;39.11;100489.03;5099198;27;46526;-58
2021/12/01 00:12:48;;;;;;;;;2.00;2.00;;;;;20.58;38.92;100480.84;5099180;27;45243;-57
2021/12/01 00:15:14;;;;;;;;;1.25;1.25;;;;;20.64;38.77;100485.75;5099417;27;45246;-59
2021/12/01 00:17:40;;;;;;;;;3.00;2.00;;;;;20.68;39.09;100460.91;5099310;27;45237;-58
2021/12/01 00:20:08;;;;;;;;;1.25;1.25;;;;;20.72;39.11;100450.19;5099082;27;45304;-58
2021/12/01 00:22:34;;;;;;;;;2.00;1.25;;;;;20.78;39.00;100444.59;5098923;27;45844;-58
2021/12/01 00:25:00;;;;;;;;;3.00;1.00;;;;;20.82;39.10;100441.66;5099473;27;45280;-58
2021/12/01 00:27:25;;;;;;;;;5.00;3.50;;;;;20.88;38.57;100434.28;5099238;27;45311;-58
2021/12/01 00:29:51;;;;;;;;;2.50;2.50;;;;;20.92;38.54;100420.81;5098864;27;45302;-58
2021/12/01 00:32:17;;;;;;;;;3.50;3.00;;;;;20.95;38.36;100410.09;5079879;27;45343;-59
2021/12/01 00:34:43;;;;;;;;;4.75;3.50;;;;;20.98;38.47;100394.09;5099003;27;45284;-61
2021/12/01 00:37:09;;;;;;;;;2.00;2.00;;;;;21.02;38.56;100389.47;5099108;27;45224;-60
2021/12/01 00:39:34;;;;;;;;;4.75;3.75;;;;;21.06;38.22;100371.69;5098775;27;45498;-59
2021/12/01 00:42:00;;;;;;;;;2.75;2.25;;;;;21.08;38.50;100351.34;5099016;27;45227;-56
2021/12/01 00:44:29;;;;;;;;;3.25;3.00;;;;;21.09;38.29;100343.34;5099026;27;45346;-58
2021/12/01 00:49:26;;;;;;;;;3.00;2.75;;;;;21.17;38.53;100341.03;5098447;27;46060;-57
2021/12/01 00:51:51;;;;;;;;;3.75;2.25;;;;;21.15;38.58;100318.38;5098607;27;45457;-58
2021/12/01 00:54:17;;;;;;;;;3.00;3.00;;;;;21.20;38.28;100326.81;5098666;27;45359;-61
2021/12/01 00:56:44;;;;;;;;;2.00;2.00;;;;;21.24;38.50;100315.13;5098520;27;45539;-60
2021/12/01 00:59:09;;;;;;;;;3.00;2.00;;;;;21.26;38.09;100313.22;5098369;27;45456;-60
2021/12/01 01:01:35;;;;;;;;;3.75;3.75;;;;;21.28;38.00;100315.75;5098415;27;45395;-60
2021/12/01 01:04:00;;;;;;;;;3.00;3.00;;;;;21.30;38.05;100298.03;5099149;27;45377;-60
2021/12/01 01:06:27;;;;;;;;;3.75;2.00;;;;;21.29;38.13;100302.50;5098691;27;45631;-61
2021/12/01 01:08:52;;;;;;;;;2.75;2.00;;;;;21.33;38.46;100299.66;5098399;27;45324;-59
2021/12/01 01:16:49;;;;;;;;;3.00;3.00;;;;;21.34;38.17;100288.13;5098435;27;45275;-58
2021/12/01 01:19:18;;;;;;;;;2.00;2.00;;;;;21.34;37.76;100289.00;5098169;27;45446;-57
2021/12/01 01:21:49;;;;;;;;;3.00;2.00;;;;;21.32;38.14;100277.72;5098093;27;45272;-58
2021/12/01 01:24:15;;;;;;;;;3.00;3.00;;;;;21.33;38.10;100276.75;5098249;27;45227;-57
2021/12/01 01:26:41;;;;;;;;;1.00;1.00;;;;;21.34;37.86;100272.31;5098295;27;45394;-57
2021/12/01 01:29:07;;;;;;;;;2.00;2.00;;;;;21.31;37.80;100271.59;5097923;27;45322;-58
2021/12/01 01:31:35;;;;;;;;;2.00;2.00;;;;;21.31;37.74;100262.84;5098347;27;45954;-59
2021/12/01 01:34:00;;;;;;;;;2.00;2.00;;;;;21.30;37.90;100259.38;5098312;27;45341;-57
2021/12/01 01:36:27;;;;;;;;;2.25;2.25;;;;;21.29;37.94;100262.94;5097399;27;45562;-60
2021/12/01 01:38:53;;;;;;;;;2.00;2.00;;;;;21.27;38.19;100262.22;5097863;27;45269;-57
2021/12/01 01:41:19;;;;;;;;;3.50;2.50;;;;;21.27;38.22;100262.22;5097876;27;45783;-61
2021/12/01 01:43:47;;;;;;;;;3.50;3.00;;;;;21.27;37.89;100256.09;5079398;27;45393;-58
2021/12/01 01:46:13;;;;;;;;;1.00;1.00;;;;;21.25;38.22;100252.72;5097884;27;45322;-60
2021/12/01 01:48:48;;;;;;;;;2.25;2.25;;;;;21.24;38.09;100246.59;5097491;27;46345;-61
2021/12/01 01:51:15;;;;;;;;;2.25;2.00;;;;;21.25;37.77;100244.81;5097686;27;45366;-61
2021/12/01 01:53:41;;;;;;;;;2.00;2.00;;;;;21.24;38.30;100241.31;5097757;27;45435;-60
2021/12/01 01:56:07;;;;;;;;;1.25;1.25;;;;;21.21;37.88;100241.56;5097777;27;45549;-60
2021/12/01 01:58:33;;;;;;;;;2.50;2.50;;;;;21.23;38.18;100244.06;5097744;27;45298;-61
2021/12/01 02:01:08;;;;;;;;;3.50;2.00;;;;;21.21;38.30;100240.69;5097401;27;45289;-59
2021/12/01 02:03:46;;;;;;;;;2.75;2.50;;;;;21.18;38.45;100233.84;5097846;27;45355;-61
2021/12/01 02:06:14;;;;;;;;;3.50;2.50;;;;;21.20;38.30;100233.72;5097481;27;45596;-59
2021/12/01 02:08:42;;;;;;;;;3.50;1.00;;;;;21.19;38.43;100232.91;5096994;27;46376;-61
2021/12/01 02:11:10;;;;;;;;;2.50;2.00;;;;;21.19;38.57;100232.91;5078985;27;45403;-62
2021/12/01 02:13:36;;;;;;;;;1.50;1.50;;;;;21.17;38.05;100214.53;5079384;27;45338;-61
2021/12/01 02:16:02;;;;;;;;;1.75;1.00;;;;;21.16;37.85;100223.41;5097654;27;45462;-61
2021/12/01 02:18:28;;;;;;;;;2.50;1.00;;;;;21.16;38.32;100217.28;5097112;27;46483;-62
2021/12/01 02:21:01;;;;;;;;;4.00;2.00;;;;;21.16;38.48;100198.84;5097227;27;45445;-61
2021/12/01 02:23:26;;;;;;;;;2.25;2.00;;;;;21.16;38.75;100201.47;5097303;27;45308;-62
2021/12/01 02:25:52;;;;;;;;;2.00;2.00;;;;;21.14;38.12;100193.69;5097462;27;45268;-62
2021/12/01 02:28:18;;;;;;;;;2.50;1.75;;;;;21.14;38.31;100179.66;5096974;27;45588;-62
2021/12/01 02:30:43;;;;;;;;;2.00;2.00;;;;;21.12;38.56;100184.19;5078779;27;46078;-62
2021/12/01 02:33:08;;;;;;;;;1.50;1.50;;;;;21.09;38.13;100174.69;5097121;27;45842;-60
2021/12/01 02:35:34;;;;;;;;;1.00;1.00;;;;;21.10;38.24;100162.38;5097686;27;45328;-58
2021/12/01 02:38:02;;;;;;;;;3.25;2.25;;;;;21.10;38.26;100157.94;5096887;27;45374;-60
2021/12/01 02:40:28;;;;;;;;;2.00;2.00;;;;;21.10;38.47;100159.75;5097025;27;45414;-61
2021/12/01 02:42:53;;;;;;;;;4.00;3.00;;;;;21.06;38.75;100143.28;5096976;27;45234;-60
2021/12/01 02:45:18;;;;;;;;;3.00;2.25;;;;;21.07;38.64;100138.88;5097207;27;45509;-61
2021/12/01 02:47:44;;;;;;;;;3.75;3.00;;;;;21.07;39.11;100130.97;5096810;27;45409;-64
2021/12/01 02:50:09;;;;;;;;;1.00;1.00;;;;;21.04;39.52;100120.63;5096814;27;45193;-61
2021/12/01 02:52:35;;;;;;;;;2.00;2.00;;;;;21.03;40.02;100118.94;5097292;27;45352;-61
2021/12/01 02:55:07;;;;;;;;;2.00;2.00;;;;;21.01;39.71;100108.53;5097240;27;45359;-62
2021/12/01 02:57:49;;;;;;;;;3.00;3.00;;;;;20.99;39.94;100100.72;5100185;27;45288;-56
2021/12/01 03:00:18;;;;;;;;;2.50;2.50;;;;;20.99;39.72;100084.94;5100168;27;45433;-56
2021/12/01 03:02:44;;;;;;;;;3.75;2.25;;;;;20.98;39.86;100083.25;5100486;27;45774;-60
2021/12/01 03:05:10;;;;;;;;;3.50;2.00;;;;;20.93;39.77;100066.06;5100778;27;45346;-58
2021/12/01 03:07:37;;;;;;;;;1.50;1.00;;;;;20.96;39.65;100050.88;5100157;27;46108;-58
2021/12/01 03:10:05;;;;;;;;;2.00;2.00;;;;;20.93;39.82;100031.81;5081809;27;45893;-57
2021/12/01 03:12:34;;;;;;;;;4.25;1.50;;;;;20.92;40.10;100030.97;5100430;27;45480;-56
2021/12/01 03:15:00;;;;;;;;;1.00;1.00;;;;;20.89;40.14;100010.09;5100501;27;45320;-56
2021/12/01 03:17:27;;;;;;;;;3.50;2.00;;;;;20.88;39.64;100003.19;5099938;27;46263;-57
2021/12/01 03:19:53;;;;;;;;;3.75;2.25;;;;;20.88;39.93;100013.72;5100034;27;45972;-57
2021/12/01 03:22:18;;;;;;;;;5.75;3.00;;;;;20.85;39.69;100000.75;5100110;27;45401;-58
2021/12/01 03:24:44;;;;;;;;;2.25;2.25;;;;;20.84;39.94;100001.69;5100077;27;45582;-57
2021/12/01 03:27:09;;;;;;;;;1.75;1.75;;;;;20.82;39.83;99995.69;5100135;27;45363;-58
2021/12/01 03:29:34;;;;;;;;;2.50;2.50;;;;;20.81;39.81;99991.38;5100228;27;45264;-57
2021/12/01 03:32:00;;;;;;;;;2.50;1.00;;;;;20.78;40.09;99984.53;5099948;27;45325;-58
2021/12/01 03:34:25;;;;;;;;;1.00;1.00;;;;;20.76;40.00;99986.44;5100202;27;45598;-57
2021/12/01 03:36:51;;;;;;;;;1.00;1.00;;;;;20.77;39.69;99974.94;5099759;27;45378;-58
2021/12/01 03:39:16;;;;;;;;;2.75;1.00;;;;;20.76;39.84;99972.44;5099660;27;45352;-59
2021/12/01 03:41:42;;;;;;;;;2.50;1.00;;;;;20.74;39.93;99961.13;5099962;27;45224;-57
2021/12/01 03:44:08;;;;;;;;;3.00;1.75;;;;;20.73;39.96;99959.44;5100214;27;45374;-57
2021/12/01 03:46:34;;;;;;;;;1.75;1.00;;;;;20.72;40.15;99944.59;5081063;27;45974;-58
2021/12/01 03:48:59;;;;;;;;;2.25;1.00;;;;;20.69;39.90;99930.69;5099736;27;45897;-59
2021/12/01 03:51:25;;;;;;;;;2.75;2.00;;;;;20.70;39.72;99924.47;5099527;27;45364;-57
2021/12/01 03:53:50;;;;;;;;;3.00;1.50;;;;;20.68;39.95;99907.09;5099741;27;45689;-58
2021/12/01 03:56:19;;;;;;;;;1.50;1.50;;;;;20.67;40.10;99910.69;5099407;27;46645;-60
2021/12/01 03:58:45;;;;;;;;;2.25;2.00;;;;;20.67;40.31;99911.50;5099257;27;45389;-58
2021/12/01 04:01:11;;;;;;;;;1.50;1.50;;;;;20.65;39.83;99897.63;5099772;27;45355;-57
2021/12/01 04:03:37;;;;;;;;;2.00;2.00;;;;;20.63;39.78;99894.25;5099799;27;45548;-61
2021/12/01 04:06:02;;;;;;;;;1.00;1.00;;;;;20.64;39.80;99885.41;5099095;27;46283;-58
2021/12/01 04:08:27;;;;;;;;;1.25;1.25;;;;;20.63;40.10;99886.38;5097925;27;45477;-59
2021/12/01 04:10:53;;;;;;;;;2.75;1.50;;;;;20.64;39.88;99868.75;5099429;27;45220;-61
2021/12/01 04:13:18;;;;;;;;;2.00;1.00;;;;;20.60;40.34;99852.34;5099574;27;45636;-61
2021/12/01 04:15:44;;;;;;;;;1.00;1.00;;;;;20.62;40.31;99836.44;5098916;27;46437;-60
2021/12/01 04:18:09;;;;;;;;;1.00;1.00;;;;;20.61;40.11;99827.72;5099538;27;45291;-60
2021/12/01 04:20:34;;;;;;;;;1.00;1.00;;;;;20.59;40.04;99808.53;5099354;27;45394;-60
2021/12/01 04:23:00;;;;;;;;;1.00;1.00;;;;;20.59;39.76;99792.75;5099320;27;45189;-58
2021/12/01 04:25:25;;;;;;;;;0.50;0.50;;;;;20.57;40.12;99799.91;5098994;27;45237;-60
2021/12/01 04:27:51;;;;;;;;;1.00;1.00;;;;;20.55;40.04;99797.41;5099043;27;45341;-57
2021/12/01 04:30:21;;;;;;;;;1.00;1.00;;;;;20.57;40.26;99799.09;5099078;27;45358;-61
2021/12/01 04:32:47;;;;;;;;;1.00;1.00;;;;;20.55;40.06;99796.56;5099216;27;45332;-58
2021/12/01 04:35:15;;;;;;;;;1.00;1.00;;;;;20.53;39.97;99791.41;5099063;27;45574;-57
2021/12/01 04:37:41;;;;;;;;;0.00;0.00;;;;;20.52;39.78;99781.81;5099058;27;45597;-59
2021/12/01 04:40:07;;;;;;;;;1.75;1.00;;;;;20.51;39.91;99780.13;5098958;27;45836;-60
2021/12/01 04:42:33;;;;;;;;;0.00;0.00;;;;;20.51;39.93;99776.69;5099099;27;46127;-61
2021/12/01 04:44:59;;;;;;;;;1.00;1.00;;;;;20.52;40.45;99770.47;5079975;27;45901;-61
2021/12/01 04:47:30;;;;;;;;;1.25;1.25;;;;;20.54;40.33;99764.13;5098750;27;45377;-58
2021/12/01 04:49:56;;;;;;;;;1.50;1.00;;;;;20.58;40.19;99762.09;5098752;27;45345;-57
2021/12/01 04:52:22;;;;;;;;;0.50;0.50;;;;;20.62;40.16;99758.31;5098932;27;45691;-59
2021/12/01 04:54:47;;;;;;;;;1.00;1.00;;;;;20.66;40.17;99743.13;5098476;27;45406;-57
2021/12/01 04:57:13;;;;;;;;;1.00;1.00;;;;;20.69;40.33;99735.84;5098673;27;45401;-57
2021/12/01 04:59:38;;;;;;;;;1.00;1.00;;;;;20.73;40.02;99727.72;5099137;27;45893;-57
2021/12/01 05:02:04;;;;;;;;;0.00;0.00;;;;;20.80;40.10;99721.06;5098720;27;45501;-58
2021/12/01 05:04:29;;;;;;;;;1.00;1.00;;;;;20.85;39.85;99718.94;5098006;27;45486;-56
2021/12/01 05:06:55;;;;;;;;;0.00;0.00;;;;;20.85;40.20;99705.78;5098172;27;45276;-56
2021/12/01 05:09:20;;;;;;;;;0.75;0.75;;;;;20.95;40.21;99708.53;5098355;27;45341;-56
2021/12/01 05:11:46;;;;;;;;;2.00;1.00;;;;;20.97;39.93;99704.88;5098413;27;45685;-56
2021/12/01 05:14:12;;;;;;;;;0.50;0.25;;;;;21.00;39.64;99683.53;5098529;27;46293;-57
2021/12/01 05:16:39;;;;;;;;;0.75;0.00;;;;;21.06;39.81;99684.88;5098199;27;45235;-57
2021/12/01 05:19:08;;;;;;;;;1.00;1.00;;;;;21.09;39.47;99686.44;5097943;27;45346;-57
2021/12/01 05:21:34;;;;;;;;;0.50;0.50;;;;;21.13;39.74;99679.97;5098399;27;45378;-57
2021/12/01 05:24:00;;;;;;;;;1.00;1.00;;;;;21.15;39.54;99673.66;5097735;27;46136;-56
2021/12/01 05:26:26;;;;;;;;;0.00;0.00;;;;;21.19;39.51;99665.50;5079552;27;45613;-58
2021/12/01 05:28:51;;;;;;;;;0.00;0.00;;;;;21.22;39.80;99660.00;5098236;27;45320;-57
2021/12/01 05:31:17;;;;;;;;;1.00;0.75;;;;;21.26;39.22;99670.19;5098250;27;45615;-57
2021/12/01 05:33:42;;;;;;;;;0.00;0.00;;;;;21.26;39.29;99659.63;5097947;27;45696;-59
2021/12/01 05:36:08;;;;;;;;;0.00;0.00;;;;;21.31;39.31;99660.13;5097786;27;45446;-56
2021/12/01 05:38:34;;;;;;;;;2.75;0.00;;;;;21.30;39.63;99655.81;5079751;27;45853;-57
2021/12/01 05:41:02;;;;;;;;;0.75;0.75;;;;;21.31;39.55;99657.50;5098138;27;45560;-57
2021/12/01 05:43:27;;;;;;;;;0.00;0.00;;;;;21.37;39.62;99650.06;5097708;27;47039;-58
2021/12/01 05:45:52;;;;;;;;;0.00;0.00;;;;;21.36;38.99;99640.47;5097755;27;45339;-59
2021/12/01 05:48:18;;;;;;;;;0.50;0.25;;;;;21.38;39.25;99651.75;5097805;27;45362;-58
2021/12/01 05:50:44;;;;;;;;;0.00;0.00;;;;;21.36;39.37;99637.84;5096962;27;45307;-58
2021/12/01 05:53:10;;;;;;;;;0.00;0.00;;;;;21.37;39.09;99634.25;5097521;27;45472;-57
2021/12/01 05:55:36;;;;;;;;;1.00;1.00;;;;;21.38;39.29;99628.03;5097768;27;45322;-58
2021/12/01 05:58:02;;;;;;;;;0.50;0.50;;;;;21.37;39.53;99632.47;5097825;27;45944;-57
2021/12/01 06:00:27;;;;;;;;;1.00;1.00;;;;;21.36;39.07;99616.75;5079700;27;45610;-60
2021/12/01 06:02:52;;;;;;;;;0.00;0.00;;;;;21.37;39.40;99618.44;5097492;27;46342;-58
2021/12/01 06:05:20;;;;;;;;;0.00;0.00;;;;;21.38;39.09;99614.84;5097378;27;45369;-61
2021/12/01 06:07:46;;;;;;;;;0.00;0.00;;;;;21.37;39.28;99614.03;5097869;27;45353;-57
2021/12/01 06:10:11;;;;;;;;;0.00;0.00;;;;;21.39;39.24;99605.97;5097558;27;45329;-60
2021/12/01 06:12:40;;;;;;;;;0.00;0.00;;;;;21.38;39.36;99591.13;5097214;27;45382;-59
2021/12/01 06:15:07;;;;;;;;;0.00;0.00;;;;;21.37;39.33;99582.38;5097285;27;45723;-57
2021/12/01 06:17:33;;;;;;;;;0.25;0.25;;;;;21.37;39.02;99586.81;5097275;27;45232;-60
2021/12/01 06:19:59;;;;;;;;;0.00;0.00;;;;;21.33;39.32;99582.75;5097524;27;45224;-57
2021/12/01 06:22:24;;;;;;;;;1.00;1.00;;;;;21.33;39.45;99588.03;5097028;27;46587;-60
2021/12/01 06:24:49;;;;;;;;;0.00;0.00;;;;;21.30;39.37;99568.84;5097017;27;45434;-59
2021/12/01 06:27:15;;;;;;;;;0.00;0.00;;;;;21.30;39.30;99558.31;5079311;27;45431;-58
2021/12/01 06:29:40;;;;;;;;;0.00;0.00;;;;;21.30;39.11;99554.81;5096943;27;45298;-59
2021/12/01 06:32:06;;;;;;;;;0.00;0.00;;;;;21.29;39.30;99548.72;5096378;27;45551;-60
2021/12/01 06:34:33;;;;;;;;;0.00;0.00;;;;;21.26;39.11;99551.59;5096990;27;45530;-58
2021/12/01 06:36:59;;;;;;;;;0.00;0.00;;;;;21.25;39.44;99563.09;5078698;27;45350;-62
2021/12/01 06:39:24;;;;;;;;;0.00;0.00;;;;;21.24;39.59;99555.31;5097311;27;45325;-58
2021/12/01 06:41:50;;;;;;;;;0.00;0.00;;;;;21.20;39.45;99538.91;5078547;27;47123;-58
2021/12/01 06:44:15;;;;;;;;;0.00;0.00;;;;;21.18;39.70;99540.81;5078912;27;45288;-59
2021/12/01 06:46:41;;;;;;;;;0.00;0.00;;;;;21.17;39.70;99533.88;5078661;27;45355;-61
2021/12/01 06:49:07;;;;;;;;;0.00;0.00;;;;;21.15;39.85;99533.16;5078915;27;45239;-60
2021/12/01 06:51:32;;;;;;;;;0.00;0.00;;;;;21.14;39.50;99534.97;5095445;27;47048;-61
2021/12/01 06:53:57;;;;;;;;;0.00;0.00;;;;;21.13;39.47;99527.16;5096863;27;45232;-60
2021/12/01 06:56:23;;;;;;;;;1.00;1.00;;;;;21.11;40.06;99545.75;5097011;27;45242;-60
2021/12/01 06:58:49;;;;;;;;;0.00;0.00;;;;;21.10;40.07;99528.25;5097361;27;45539;-59
2021/12/01 07:01:15;;;;;;;;;0.00;0.00;;;;;21.09;39.92;99538.91;5096853;27;45688;-58
2021/12/01 07:03:41;;;;;;;;;1.00;0.00;;;;;21.08;39.66;99539.88;5096677;27;45347;-57
2021/12/01 07:06:06;;;;;;;;;0.00;0.00;;;;;21.05;40.03;99516.41;5078523;27;45483;-57
2021/12/01 07:08:32;;;;;;;;;0.00;0.00;;;;;21.05;40.13;99524.31;5078762;27;45549;-57
2021/12/01 07:10:59;;;;;;;;;0.25;0.00;;;;;21.02;40.17;99520.13;5078244;27;47001;-59
2021/12/01 07:13:24;;;;;;;;;0.00;0.00;;;;;20.99;39.77;99523.84;5096578;27;45759;-59
2021/12/01 07:15:50;;;;;;;;;0.00;0.00;;;;;21.00;39.99;99522.03;5097005;27;45536;-57
2021/12/01 07:18:15;;;;;;;;;0.00;0.00;;;;;20.97;39.79;99515.22;5097076;27;45528;-57
2021/12/01 07:20:44;;;;;;;;;0.00;0.00;;;;;20.96;39.79;99510.91;5078015;27;46346;-59
2021/12/01 07:23:10;;;;;;;;;1.00;0.00;;;;;20.96;39.83;99518.81;5078010;27;45571;-58
2021/12/01 07:25:35;;;;;;;;;1.25;0.75;;;;;20.93;40.17;99523.47;5096602;27;45494;-59
2021/12/01 07:28:01;;;;;;;;;0.00;0.00;;;;;20.93;39.72;99526.13;5096729;27;45232;-57
2021/12/01 07:30:26;;;;;;;;;0.00;0.00;;;;;20.91;40.31;99522.75;5096362;27;45657;-63
2021/12/01 07:32:51;;;;;;;;;0.75;0.75;;;;;20.88;40.04;99521.22;5096329;27;45508;-58
2021/12/01 07:35:17;;;;;;;;;0.00;0.00;;;;;20.87;39.78;99522.16;5096834;27;45510;-59
2021/12/01 07:37:44;;;;;;;;;0.00;0.00;;;;;20.87;40.46;99522.16;5096420;27;45565;-60
2021/12/01 07:40:10;;;;;;;;;0.00;0.00;;;;;20.85;40.41;99524.06;5096245;27;46495;-58
2021/12/01 07:42:37;;;;;;;;;0.00;0.00;;;;;20.84;40.19;99523.22;5098706;27;45773;-58
2021/12/01 07:45:06;;;;;;;;;0.00;0.00;;;;;20.82;40.54;99529.56;5099839;27;45250;-60
2021/12/01 07:47:32;;;;;;;;;1.00;0.00;;;;;20.82;40.63;99530.41;5100084;27;45512;-62
2021/12/01 07:49:57;;;;;;;;;0.00;0.00;;;;;20.82;40.15;99527.78;5099652;27;46158;-62
2021/12/01 07:52:23;;;;;;;;;0.00;0.00;;;;;20.82;40.23;99525.16;5099573;27;45478;-58
2021/12/01 07:54:48;;;;;;;;;0.00;0.00;;;;;20.83;40.55;99520.72;5100102;27;45400;-62
2021/12/01 07:57:14;;;;;;;;;0.00;0.00;;;;;20.86;40.51;99520.47;5099835;27;45371;-64
2021/12/01 07:59:40;;;;;;;;;0.25;0.25;;;;;20.88;40.98;99518.56;5080998;27;48532;-64
2021/12/01 08:02:05;;;;;;;;;0.00;0.00;;;;;20.89;40.43;99517.59;5099295;27;45455;-62
2021/12/01 08:04:31;;;;;;;;;0.00;0.00;;;;;20.90;40.83;99515.81;5099546;27;45561;-63
2021/12/01 08:06:56;;;;;;;;;0.00;0.00;;;;;20.89;40.98;99507.06;5081091;27;45616;-64
2021/12/01 08:09:23;;;;;;;;;0.00;0.00;;;;;20.93;40.52;99505.88;5099494;27;47021;-62
2021/12/01 08:11:49;;;;;;;;;0.00;0.00;;;;;20.92;40.55;99498.09;5099491;27;45323;-65
2021/12/01 08:14:14;;;;;;;;;0.00;0.00;;;;;20.92;40.83;99496.28;5099349;27;45311;-63
2021/12/01 08:16:39;;;;;;;;;0.00;0.00;;;;;20.93;40.89;99502.41;5099396;27;45261;-65
2021/12/01 08:19:05;;;;;;;;;0.25;0.25;;;;;20.94;40.77;99491.75;5080806;27;46336;-63
2021/12/01 08:21:31;;;;;;;;;0.25;0.00;;;;;20.96;40.53;99500.38;5083960;27;46359;-61
2021/12/01 08:23:57;;;;;;;;;1.00;0.00;;;;;20.99;40.63;99496.66;5086616;27;45521;-63
2021/12/01 08:26:22;;;;;;;;;0.50;0.00;;;;;20.99;40.93;99484.34;5099836;27;45419;-58
2021/12/01 08:28:48;;;;;;;;;0.00;0.00;;;;;21.01;40.40;99485.03;5099034;27;46423;-58
2021/12/01 08:31:15;;;;;;;;;0.50;0.00;;;;;21.01;40.84;99492.94;5098819;27;45264;-64
2021/12/01 08:33:42;;;;;;;;;0.00;0.00;;;;;21.00;40.68;99485.97;5098730;27;45451;-60
2021/12/01 08:36:09;;;;;;;;;0.00;0.00;;;;;21.00;40.71;99477.25;5099283;27;45624;-62
2021/12/01 08:38:36;;;;;;;;;0.00;0.00;;;;;21.02;41.10;99472.72;5098973;27;46566;-58
2021/12/01 08:41:03;;;;;;;;;0.00;0.00;;;;;21.01;40.47;99473.66;5098852;27;45524;-59
2021/12/01 08:43:28;;;;;;;;;0.75;0.00;;;;;20.98;41.04;99487.91;5098971;27;45429;-58
2021/12/01 08:45:54;;;;;;;;;0.00;0.00;;;;;21.01;40.51;99500.00;5080740;27;45487;-64
2021/12/01 08:48:20;;;;;;;;;1.00;0.00;;;;;21.01;40.57;99485.03;5098729;27;46752;-63
2021/12/01 08:50:45;;;;;;;;;0.25;0.00;;;;;21.00;40.91;99483.34;5098946;27;45488;-59
2021/12/01 08:53:11;;;;;;;;;0.00;0.00;;;;;21.01;40.75;99494.72;5097978;27;45509;-62
2021/12/01 08:55:40;;;;;;;;;0.00;0.00;;;;;21.01;40.65;99494.72;5099116;27;45596;-62
2021/12/01 08:58:07;;;;;;;;;1.00;0.00;;;;;21.00;40.79;99483.34;5098555;27;47506;-61
2021/12/01 09:00:35;;;;;;;;;0.00;0.00;;;;;20.99;40.72;99488.75;5098744;27;45341;-63
2021/12/01 09:03:00;;;;;;;;;0.00;0.00;;;;;20.94;41.07;99483.84;5098909;27;45307;-60
2021/12/01 09:05:25;;;;;;;;;0.00;0.00;;;;;20.96;40.64;99473.19;5098991;27;45387;-58
2021/12/01 09:07:51;;;;;;;;;0.00;0.00;;;;;20.95;41.02;99474.97;5079735;27;47059;-60
2021/12/01 09:10:16;;;;;;;;;0.00;0.00;;;;;20.94;40.70;99478.56;5098445;27;45429;-59
2021/12/01 09:12:43;;;;;;;;;0.25;0.00;;;;;20.92;40.34;99477.84;5098645;27;45201;-59
2021/12/01 09:15:09;;;;;;;;;0.75;0.75;;;;;20.92;40.92;99469.94;5098602;27;45578;-58
2021/12/01 09:17:34;;;;;;;;;1.00;0.00;;;;;20.92;40.81;99483.13;5098188;27;46279;-60
2021/12/01 09:20:02;;;;;;;;;0.00;0.00;;;;;20.91;40.79;99480.63;5096918;27;45295;-58
2021/12/01 09:22:28;;;;;;;;;0.25;0.00;;;;;20.87;40.85;99477.38;5098417;27;45374;-61
2021/12/01 09:24:53;;;;;;;;;0.00;0.00;;;;;20.87;41.32;99481.81;5080363;27;45506;-54
2021/12/01 09:27:19;;;;;;;;;0.75;0.00;;;;;20.81;40.95;99478.72;5098089;27;45527;-62
2021/12/01 09:29:44;;;;;;;;;0.50;0.50;;;;;20.82;41.20;99480.38;5098217;27;45460;-61
2021/12/01 09:32:10;;;;;;;;;0.00;0.00;;;;;20.80;41.47;99477.03;5098273;27;45268;-59
2021/12/01 09:34:37;;;;;;;;;0.00;0.00;;;;;20.76;41.06;99467.69;5098418;27;45561;-60
2021/12/01 09:37:02;;;;;;;;;0.00;0.00;;;;;20.76;41.12;99482.66;5079576;27;47845;-62
2021/12/01 09:39:27;;;;;;;;;0.00;0.00;;;;;20.73;41.55;99477.59;5098191;27;45723;-60
2021/12/01 09:41:55;;;;;;;;;0.00;0.00;;;;;20.71;41.72;99475.09;5098383;27;45402;-61
2021/12/01 09:44:20;;;;;;;;;1.00;0.00;;;;;20.68;41.43;99477.94;5098083;27;45331;-59
2021/12/01 09:46:46;;;;;;;;;0.00;0.00;;;;;20.68;41.63;99493.75;5079527;27;47290;-56
2021/12/01 09:49:11;;;;;;;;;0.50;0.00;;;;;20.65;41.44;99496.59;5097928;27;45415;-57
2021/12/01 09:51:37;;;;;;;;;0.00;0.00;;;;;20.65;41.23;99491.34;5098070;27;45527;-55
2021/12/01 09:54:03;;;;;;;;;0.50;0.00;;;;;20.64;41.15;99505.47;5098221;27;45550;-57
2021/12/01 09:56:30;;;;;;;;;0.25;0.00;;;;;20.64;41.18;99508.09;5097782;27;46576;-57
2021/12/01 09:58:56;;;;;;;;;0.00;0.00;;;;;20.62;41.19;99507.38;5097852;27;45790;-57
2021/12/01 10:01:23;;;;;;;;;1.00;0.00;;;;;20.59;41.05;99518.97;5097747;27;45243;-61
2021/12/01 10:03:49;;;;;;;;;0.75;0.75;;;;;20.53;40.94;99508.94;5097946;27;45204;-58
2021/12/01 10:06:18;;;;;;;;;1.00;1.00;;;;;20.51;41.26;99510.84;5096133;27;45910;-58
2021/12/01 10:08:51;;;;;;;;;0.00;0.00;;;;;20.46;40.79;99512.97;5097338;27;45362;-55
2021/12/01 10:11:19;;;;;;;;;0.00;0.00;;;;;20.42;41.15;99516.81;5097459;27;45411;-55
2021/12/01 10:13:57;;;;;;;;;0.00;0.00;;;;;20.35;41.08;99506.72;5096007;27;45457;-56
2021/12/01 10:16:30;;;;;;;;;0.75;0.00;;;;;20.29;41.13;99507.19;5097052;27;46175;-53
2021/12/01 10:18:58;;;;;;;;;0.75;0.00;;;;;20.24;40.96;99509.31;5097586;27;45369;-54
2021/12/01 10:21:39;;;;;;;;;1.75;1.75;;;;;20.21;40.61;99510.41;5097508;27;45320;-57
2021/12/01 10:24:12;;;;;;;;;1.00;0.00;;;;;20.16;40.74;99502.03;5097598;27;45350;-55
2021/12/01 10:26:48;;;;;;;;;0.25;0.25;;;;;20.13;40.16;99501.41;5097163;27;46667;-56
2021/12/01 10:29:22;;;;;;;;;0.00;0.00;;;;;20.08;40.33;99504.38;5097196;27;45417;-56
2021/12/01 10:31:52;;;;;;;;;0.00;0.00;;;;;20.02;40.24;99518.81;5097433;27;45398;-54
2021/12/01 10:34:39;;;;;;;;;2.00;0.00;;;;;19.97;40.72;99518.34;5097371;27;45558;-55
2021/12/01 10:37:29;;;;;;;;;0.50;0.25;;;;;19.92;40.29;99517.81;5096895;27;46609;-53
2021/12/01 10:40:04;;;;;;;;;0.50;0.50;;;;;19.88;40.45;99519.03;5078552;27;45772;-56
2021/12/01 10:42:30;;;;;;;;;1.00;1.00;;;;;19.82;40.71;99508.91;5097462;27;45437;-53
2021/12/01 10:45:02;;;;;;;;;1.00;1.00;;;;;19.81;40.76;99507.22;5097712;27;45417;-55
2021/12/01 10:47:42;;;;;;;;;0.00;0.00;;;;;19.78;40.57;99501.25;5097160;27;46511;-55
2021/12/01 10:50:12;;;;;;;;;1.00;1.00;;;;;19.75;40.71;99501.47;5096948;27;45698;-55
2021/12/01 10:52:42;;;;;;;;;0.25;0.25;;;;;19.74;40.59;99497.19;5096970;27;45402;-59
2021/12/01 10:55:18;;;;;;;;;0.50;0.50;;;;;19.73;40.83;99507.81;5096979;27;45250;-55
2021/12/01 10:57:47;;;;;;;;;2.00;1.00;;;;;19.69;40.42;99515.06;5096812;27;45706;-54
2021/12/01 11:00:16;;;;;;;;;1.25;1.00;;;;;19.69;40.79;99514.22;5096758;27;45875;-56
2021/12/01 11:02:42;;;;;;;;;1.00;1.00;;;;;19.68;40.75;99505.50;5096980;27;45241;-56
2021/12/01 11:05:08;;;;;;;;;3.75;1.50;;;;;19.67;41.53;99495.97;5096901;27;45612;-60
2021/12/01 11:07:34;;;;;;;;;1.75;1.75;;;;;19.71;41.31;99505.28;5096394;27;46085;-60
2021/12/01 11:10:20;;;;;;;;;0.75;0.75;;;;;19.72;41.42;99491.19;5097052;27;45256;-58
2021/12/01 11:12:54;;;;;;;;;2.00;1.00;;;;;19.75;41.72;99488.34;5096765;27;45194;-60
2021/12/01 11:15:24;;;;;;;;;3.75;1.25;;;;;19.80;41.76;99495.88;5096837;27;45462;-59
2021/12/01 11:17:50;;;;;;;;;1.25;0.50;;;;;19.82;41.25;99493.13;5099146;27;45442;-57
2021/12/01 11:20:31;;;;;;;;;4.50;4.00;;;;;19.85;41.68;99493.75;5099912;27;45521;-59
2021/12/01 11:23:08;;;;;;;;;1.00;1.00;;;;;19.89;41.75;99489.16;5081956;27;45272;-56
2021/12/01 11:25:36;;;;;;;;;1.00;1.00;;;;;19.91;41.89;99487.22;5100514;27;45311;-56
2021/12/01 11:28:08;;;;;;;;;4.00;2.00;;;;;19.95;41.86;99487.84;5100427;27;46472;-57
2021/12/01 11:30:33;;;;;;;;;3.00;2.00;;;;;19.97;42.12;99496.44;5100407;27;45392;-55
2021/12/01 11:32:59;;;;;;;;;2.75;1.75;;;;;19.97;42.03;99486.78;5100524;27;45307;-56
2021/12/01 11:35:25;;;;;;;;;2.00;2.00;;;;;19.99;41.83;99484.03;5100241;27;45363;-57
2021/12/01 11:37:55;;;;;;;;;3.50;1.00;;;;;19.99;42.20;99482.25;5099777;27;46473;-56